sensor_id;sensor_type;location;lat;lon;timestamp;P1;durP1;ratioP1;P2;durP2;ratioP2
80272;SDS011;69574;45.328;9.598;2024-03-07T00:01:48;8.93;;;5.72;;
80272;SDS011;69574;45.328;9.598;2024-03-07T00:04:14;13.43;;;6.50;;
80272;SDS011;69574;45.328;9.598;2024-03-07T00:06:40;11.68;;;6.70;;
80272;SDS011;69574;45.328;9.598;2024-03-07T00:11:32;9.75;;;6.75;;
80272;SDS011;69574;45.328;9.598;2024-03-07T00:13:57;9.80;;;6.35;;
80272;SDS011;69574;45.328;9.598;2024-03-07T00:16:25;12.68;;;7.40;;
80272;SDS011;69574;45.328;9.598;2024-03-07T00:18:50;11.85;;;7.53;;
80272;SDS011;69574;45.328;9.598;2024-03-07T00:21:17;13.18;;;6.75;;
80272;SDS011;69574;45.328;9.598;2024-03-07T00:23:43;13.05;;;7.43;;
80272;SDS011;69574;45.328;9.598;2024-03-07T00:26:09;9.52;;;6.90;;
80272;SDS011;69574;45.328;9.598;2024-03-07T00:28:34;10.02;;;6.30;;
80272;SDS011;69574;45.328;9.598;2024-03-07T00:31:04;13.98;;;7.47;;
80272;SDS011;69574;45.328;9.598;2024-03-07T00:33:33;11.75;;;7.03;;
80272;SDS011;69574;45.328;9.598;2024-03-07T00:35:59;13.75;;;8.32;;
80272;SDS011;69574;45.328;9.598;2024-03-07T00:38:25;13.38;;;8.60;;
80272;SDS011;69574;45.328;9.598;2024-03-07T00:40:51;13.75;;;8.05;;
80272;SDS011;69574;45.328;9.598;2024-03-07T00:43:16;12.07;;;7.65;;
80272;SDS011;69574;45.328;9.598;2024-03-07T00:45:42;17.48;;;8.52;;
80272;SDS011;69574;45.328;9.598;2024-03-07T00:48:08;11.68;;;7.55;;
80272;SDS011;69574;45.328;9.598;2024-03-07T00:50:36;11.65;;;7.22;;
80272;SDS011;69574;45.328;9.598;2024-03-07T00:53:01;12.93;;;7.55;;
80272;SDS011;69574;45.328;9.598;2024-03-07T00:55:27;13.18;;;7.20;;
80272;SDS011;69574;45.328;9.598;2024-03-07T00:57:53;12.15;;;7.22;;
80272;SDS011;69574;45.328;9.598;2024-03-07T01:00:19;13.18;;;7.97;;
80272;SDS011;69574;45.328;9.598;2024-03-07T01:02:46;14.77;;;8.13;;
80272;SDS011;69574;45.328;9.598;2024-03-07T01:05:12;10.55;;;6.85;;
80272;SDS011;69574;45.328;9.598;2024-03-07T01:07:44;13.13;;;7.35;;
80272;SDS011;69574;45.328;9.598;2024-03-07T01:10:11;13.65;;;8.52;;
80272;SDS011;69574;45.328;9.598;2024-03-07T01:12:37;11.00;;;7.38;;
80272;SDS011;69574;45.328;9.598;2024-03-07T01:15:02;11.80;;;7.25;;
80272;SDS011;69574;45.328;9.598;2024-03-07T01:17:31;12.38;;;7.80;;
80272;SDS011;69574;45.328;9.598;2024-03-07T01:19:57;10.93;;;6.88;;
80272;SDS011;69574;45.328;9.598;2024-03-07T01:22:23;9.88;;;6.95;;
80272;SDS011;69574;45.328;9.598;2024-03-07T01:24:51;11.15;;;7.03;;
80272;SDS011;69574;45.328;9.598;2024-03-07T01:27:16;10.63;;;6.55;;
80272;SDS011;69574;45.328;9.598;2024-03-07T01:29:43;11.48;;;6.60;;
80272;SDS011;69574;45.328;9.598;2024-03-07T01:32:10;10.98;;;7.22;;
80272;SDS011;69574;45.328;9.598;2024-03-07T01:34:35;11.57;;;6.78;;
80272;SDS011;69574;45.328;9.598;2024-03-07T01:37:01;10.82;;;7.07;;
80272;SDS011;69574;45.328;9.598;2024-03-07T01:39:27;9.82;;;6.40;;
80272;SDS011;69574;45.328;9.598;2024-03-07T01:41:54;9.18;;;5.72;;
80272;SDS011;69574;45.328;9.598;2024-03-07T01:44:20;10.90;;;6.93;;
80272;SDS011;69574;45.328;9.598;2024-03-07T01:46:46;8.95;;;6.13;;
80272;SDS011;69574;45.328;9.598;2024-03-07T01:49:16;10.35;;;6.22;;
80272;SDS011;69574;45.328;9.598;2024-03-07T01:51:41;9.95;;;6.30;;
80272;SDS011;69574;45.328;9.598;2024-03-07T01:54:08;8.68;;;6.32;;
80272;SDS011;69574;45.328;9.598;2024-03-07T01:56:34;12.05;;;6.78;;
80272;SDS011;69574;45.328;9.598;2024-03-07T01:59:02;11.13;;;6.70;;
80272;SDS011;69574;45.328;9.598;2024-03-07T02:01:30;10.32;;;7.03;;
80272;SDS011;69574;45.328;9.598;2024-03-07T02:03:56;14.13;;;7.20;;
80272;SDS011;69574;45.328;9.598;2024-03-07T02:06:22;11.93;;;6.38;;
80272;SDS011;69574;45.328;9.598;2024-03-07T02:08:48;10.27;;;6.68;;
80272;SDS011;69574;45.328;9.598;2024-03-07T02:11:14;11.60;;;7.43;;
80272;SDS011;69574;45.328;9.598;2024-03-07T02:13:39;8.98;;;6.72;;
80272;SDS011;69574;45.328;9.598;2024-03-07T02:16:06;11.13;;;6.95;;
80272;SDS011;69574;45.328;9.598;2024-03-07T02:18:33;10.90;;;7.50;;
80272;SDS011;69574;45.328;9.598;2024-03-07T02:21:00;10.88;;;7.80;;
80272;SDS011;69574;45.328;9.598;2024-03-07T02:23:26;11.07;;;8.07;;
80272;SDS011;69574;45.328;9.598;2024-03-07T02:25:53;11.32;;;7.63;;
80272;SDS011;69574;45.328;9.598;2024-03-07T02:28:18;10.93;;;7.55;;
80272;SDS011;69574;45.328;9.598;2024-03-07T02:30:44;15.45;;;8.60;;
80272;SDS011;69574;45.328;9.598;2024-03-07T02:33:11;13.05;;;7.35;;
80272;SDS011;69574;45.328;9.598;2024-03-07T02:35:37;12.02;;;7.85;;
80272;SDS011;69574;45.328;9.598;2024-03-07T02:38:05;14.95;;;7.65;;
80272;SDS011;69574;45.328;9.598;2024-03-07T02:40:30;13.23;;;7.63;;
80272;SDS011;69574;45.328;9.598;2024-03-07T02:42:56;10.52;;;7.70;;
80272;SDS011;69574;45.328;9.598;2024-03-07T02:45:23;10.90;;;7.20;;
80272;SDS011;69574;45.328;9.598;2024-03-07T02:47:48;10.90;;;7.43;;
80272;SDS011;69574;45.328;9.598;2024-03-07T02:50:14;11.75;;;7.85;;
80272;SDS011;69574;45.328;9.598;2024-03-07T02:52:40;12.88;;;8.40;;
80272;SDS011;69574;45.328;9.598;2024-03-07T02:55:07;9.40;;;6.80;;
80272;SDS011;69574;45.328;9.598;2024-03-07T02:57:35;9.50;;;6.30;;
80272;SDS011;69574;45.328;9.598;2024-03-07T03:00:01;12.63;;;8.50;;
80272;SDS011;69574;45.328;9.598;2024-03-07T03:02:28;17.67;;;8.95;;
80272;SDS011;69574;45.328;9.598;2024-03-07T03:04:53;15.18;;;8.57;;
80272;SDS011;69574;45.328;9.598;2024-03-07T03:07:19;12.48;;;8.10;;
80272;SDS011;69574;45.328;9.598;2024-03-07T03:09:45;14.23;;;8.02;;
80272;SDS011;69574;45.328;9.598;2024-03-07T03:12:12;11.52;;;7.53;;
80272;SDS011;69574;45.328;9.598;2024-03-07T03:14:38;13.93;;;8.73;;
80272;SDS011;69574;45.328;9.598;2024-03-07T03:17:05;13.82;;;9.38;;
80272;SDS011;69574;45.328;9.598;2024-03-07T03:19:34;14.07;;;8.88;;
80272;SDS011;69574;45.328;9.598;2024-03-07T03:21:59;12.70;;;8.73;;
80272;SDS011;69574;45.328;9.598;2024-03-07T03:24:25;11.18;;;8.32;;
80272;SDS011;69574;45.328;9.598;2024-03-07T03:29:19;12.23;;;8.30;;
80272;SDS011;69574;45.328;9.598;2024-03-07T03:34:10;9.33;;;7.13;;
80272;SDS011;69574;45.328;9.598;2024-03-07T03:36:35;11.35;;;7.53;;
80272;SDS011;69574;45.328;9.598;2024-03-07T03:39:01;10.48;;;7.70;;
80272;SDS011;69574;45.328;9.598;2024-03-07T03:41:27;11.02;;;6.97;;
80272;SDS011;69574;45.328;9.598;2024-03-07T03:43:52;14.60;;;8.93;;
80272;SDS011;69574;45.328;9.598;2024-03-07T03:46:19;14.82;;;9.02;;
80272;SDS011;69574;45.328;9.598;2024-03-07T03:51:10;12.90;;;9.27;;
80272;SDS011;69574;45.328;9.598;2024-03-07T03:53:38;12.90;;;8.45;;
80272;SDS011;69574;45.328;9.598;2024-03-07T03:56:04;13.63;;;8.98;;
80272;SDS011;69574;45.328;9.598;2024-03-07T03:58:31;13.15;;;7.90;;
80272;SDS011;69574;45.328;9.598;2024-03-07T04:00:56;13.18;;;9.02;;
80272;SDS011;69574;45.328;9.598;2024-03-07T04:03:25;11.95;;;8.88;;
80272;SDS011;69574;45.328;9.598;2024-03-07T04:05:52;13.85;;;9.98;;
80272;SDS011;69574;45.328;9.598;2024-03-07T04:08:17;11.77;;;8.27;;
80272;SDS011;69574;45.328;9.598;2024-03-07T04:10:45;13.13;;;9.27;;
80272;SDS011;69574;45.328;9.598;2024-03-07T04:13:11;13.50;;;9.73;;
80272;SDS011;69574;45.328;9.598;2024-03-07T04:15:36;12.75;;;8.77;;
80272;SDS011;69574;45.328;9.598;2024-03-07T04:18:02;14.75;;;8.48;;
80272;SDS011;69574;45.328;9.598;2024-03-07T04:20:29;11.73;;;7.72;;
80272;SDS011;69574;45.328;9.598;2024-03-07T04:25:21;10.57;;;7.35;;
80272;SDS011;69574;45.328;9.598;2024-03-07T04:27:46;8.45;;;6.63;;
80272;SDS011;69574;45.328;9.598;2024-03-07T04:30:14;9.23;;;6.72;;
80272;SDS011;69574;45.328;9.598;2024-03-07T04:32:42;10.05;;;5.60;;
80272;SDS011;69574;45.328;9.598;2024-03-07T04:35:08;9.48;;;6.47;;
80272;SDS011;69574;45.328;9.598;2024-03-07T04:37:37;7.63;;;5.70;;
80272;SDS011;69574;45.328;9.598;2024-03-07T04:40:03;7.80;;;6.05;;
80272;SDS011;69574;45.328;9.598;2024-03-07T04:42:29;8.07;;;5.30;;
80272;SDS011;69574;45.328;9.598;2024-03-07T04:44:55;10.40;;;5.20;;
80272;SDS011;69574;45.328;9.598;2024-03-07T04:47:21;8.10;;;5.53;;
80272;SDS011;69574;45.328;9.598;2024-03-07T04:49:47;9.98;;;6.82;;
80272;SDS011;69574;45.328;9.598;2024-03-07T04:52:12;12.05;;;7.40;;
80272;SDS011;69574;45.328;9.598;2024-03-07T04:54:40;8.70;;;6.43;;
80272;SDS011;69574;45.328;9.598;2024-03-07T04:57:05;15.77;;;8.20;;
80272;SDS011;69574;45.328;9.598;2024-03-07T04:59:31;11.43;;;8.05;;
80272;SDS011;69574;45.328;9.598;2024-03-07T05:01:57;12.13;;;7.57;;
80272;SDS011;69574;45.328;9.598;2024-03-07T05:04:23;12.38;;;8.05;;
80272;SDS011;69574;45.328;9.598;2024-03-07T05:06:49;13.27;;;7.68;;
80272;SDS011;69574;45.328;9.598;2024-03-07T05:09:14;11.30;;;7.60;;
80272;SDS011;69574;45.328;9.598;2024-03-07T05:11:52;12.40;;;7.18;;
80272;SDS011;69574;45.328;9.598;2024-03-07T05:14:18;15.05;;;8.52;;
80272;SDS011;69574;45.328;9.598;2024-03-07T05:16:44;11.73;;;7.28;;
80272;SDS011;69574;45.328;9.598;2024-03-07T05:19:10;7.63;;;4.90;;
80272;SDS011;69574;45.328;9.598;2024-03-07T05:21:35;5.95;;;4.38;;
80272;SDS011;69574;45.328;9.598;2024-03-07T05:24:04;6.50;;;4.03;;
80272;SDS011;69574;45.328;9.598;2024-03-07T05:26:29;7.93;;;4.57;;
80272;SDS011;69574;45.328;9.598;2024-03-07T05:29:01;6.47;;;4.88;;
80272;SDS011;69574;45.328;9.598;2024-03-07T05:31:30;5.72;;;4.50;;
80272;SDS011;69574;45.328;9.598;2024-03-07T05:33:58;5.78;;;4.55;;
80272;SDS011;69574;45.328;9.598;2024-03-07T05:36:24;6.05;;;4.07;;
80272;SDS011;69574;45.328;9.598;2024-03-07T05:38:49;7.05;;;5.07;;
80272;SDS011;69574;45.328;9.598;2024-03-07T05:41:15;7.20;;;4.80;;
80272;SDS011;69574;45.328;9.598;2024-03-07T05:43:41;7.15;;;4.80;;
80272;SDS011;69574;45.328;9.598;2024-03-07T05:46:08;6.40;;;4.72;;
80272;SDS011;69574;45.328;9.598;2024-03-07T05:48:35;5.78;;;4.28;;
80272;SDS011;69574;45.328;9.598;2024-03-07T05:51:01;8.32;;;4.35;;
80272;SDS011;69574;45.328;9.598;2024-03-07T05:53:26;6.75;;;4.13;;
80272;SDS011;69574;45.328;9.598;2024-03-07T05:55:52;6.88;;;4.53;;
80272;SDS011;69574;45.328;9.598;2024-03-07T05:58:18;9.05;;;6.30;;
80272;SDS011;69574;45.328;9.598;2024-03-07T06:03:16;7.70;;;5.13;;
80272;SDS011;69574;45.328;9.598;2024-03-07T06:05:43;6.78;;;5.57;;
80272;SDS011;69574;45.328;9.598;2024-03-07T06:08:08;12.80;;;7.68;;
80272;SDS011;69574;45.328;9.598;2024-03-07T06:10:34;6.53;;;4.90;;
80272;SDS011;69574;45.328;9.598;2024-03-07T06:13:00;8.02;;;5.53;;
80272;SDS011;69574;45.328;9.598;2024-03-07T06:15:26;9.85;;;5.60;;
80272;SDS011;69574;45.328;9.598;2024-03-07T06:17:51;8.88;;;5.68;;
80272;SDS011;69574;45.328;9.598;2024-03-07T06:20:18;8.68;;;6.25;;
80272;SDS011;69574;45.328;9.598;2024-03-07T06:22:50;8.88;;;6.40;;
80272;SDS011;69574;45.328;9.598;2024-03-07T06:25:16;9.60;;;5.93;;
80272;SDS011;69574;45.328;9.598;2024-03-07T06:27:45;8.63;;;6.22;;
80272;SDS011;69574;45.328;9.598;2024-03-07T06:30:14;8.70;;;5.70;;
80272;SDS011;69574;45.328;9.598;2024-03-07T06:32:41;7.15;;;5.38;;
80272;SDS011;69574;45.328;9.598;2024-03-07T06:35:07;8.15;;;5.60;;
80272;SDS011;69574;45.328;9.598;2024-03-07T06:37:34;7.78;;;5.80;;
80272;SDS011;69574;45.328;9.598;2024-03-07T06:40:00;8.88;;;6.00;;
80272;SDS011;69574;45.328;9.598;2024-03-07T06:42:26;7.82;;;5.10;;
80272;SDS011;69574;45.328;9.598;2024-03-07T06:44:51;7.75;;;5.40;;
80272;SDS011;69574;45.328;9.598;2024-03-07T06:47:17;6.57;;;4.80;;
80272;SDS011;69574;45.328;9.598;2024-03-07T06:49:42;7.20;;;5.10;;
80272;SDS011;69574;45.328;9.598;2024-03-07T06:52:08;5.75;;;4.63;;
80272;SDS011;69574;45.328;9.598;2024-03-07T06:54:35;7.95;;;5.78;;
80272;SDS011;69574;45.328;9.598;2024-03-07T06:57:01;7.22;;;4.70;;
80272;SDS011;69574;45.328;9.598;2024-03-07T06:59:28;8.32;;;5.20;;
80272;SDS011;69574;45.328;9.598;2024-03-07T07:01:53;7.85;;;5.90;;
80272;SDS011;69574;45.328;9.598;2024-03-07T07:04:19;8.10;;;5.60;;
80272;SDS011;69574;45.328;9.598;2024-03-07T07:06:45;9.07;;;5.90;;
80272;SDS011;69574;45.328;9.598;2024-03-07T07:09:10;7.10;;;5.70;;
80272;SDS011;69574;45.328;9.598;2024-03-07T07:11:38;8.95;;;6.03;;
80272;SDS011;69574;45.328;9.598;2024-03-07T07:14:03;8.30;;;6.22;;
80272;SDS011;69574;45.328;9.598;2024-03-07T07:16:29;10.73;;;7.05;;
80272;SDS011;69574;45.328;9.598;2024-03-07T07:18:56;9.30;;;6.82;;
80272;SDS011;69574;45.328;9.598;2024-03-07T07:21:22;10.35;;;7.70;;
80272;SDS011;69574;45.328;9.598;2024-03-07T07:23:47;12.02;;;7.45;;
80272;SDS011;69574;45.328;9.598;2024-03-07T07:26:13;13.93;;;8.25;;
80272;SDS011;69574;45.328;9.598;2024-03-07T07:28:40;15.45;;;8.40;;
80272;SDS011;69574;45.328;9.598;2024-03-07T07:31:06;15.32;;;8.55;;
80272;SDS011;69574;45.328;9.598;2024-03-07T07:33:31;13.50;;;9.30;;
80272;SDS011;69574;45.328;9.598;2024-03-07T07:35:57;13.13;;;8.35;;
80272;SDS011;69574;45.328;9.598;2024-03-07T07:38:23;12.40;;;7.95;;
80272;SDS011;69574;45.328;9.598;2024-03-07T07:40:48;14.85;;;9.05;;
80272;SDS011;69574;45.328;9.598;2024-03-07T07:43:17;14.07;;;8.70;;
80272;SDS011;69574;45.328;9.598;2024-03-07T07:45:44;14.15;;;8.55;;
80272;SDS011;69574;45.328;9.598;2024-03-07T07:48:09;11.85;;;8.80;;
80272;SDS011;69574;45.328;9.598;2024-03-07T07:50:37;12.05;;;8.55;;
80272;SDS011;69574;45.328;9.598;2024-03-07T07:53:02;14.15;;;8.32;;
80272;SDS011;69574;45.328;9.598;2024-03-07T07:55:32;14.63;;;9.00;;
80272;SDS011;69574;45.328;9.598;2024-03-07T07:57:58;13.50;;;8.60;;
80272;SDS011;69574;45.328;9.598;2024-03-07T08:00:25;12.65;;;8.32;;
80272;SDS011;69574;45.328;9.598;2024-03-07T08:02:53;13.07;;;8.45;;
80272;SDS011;69574;45.328;9.598;2024-03-07T08:05:19;14.07;;;8.68;;
80272;SDS011;69574;45.328;9.598;2024-03-07T08:07:45;13.30;;;8.80;;
80272;SDS011;69574;45.328;9.598;2024-03-07T08:10:13;13.02;;;9.13;;
80272;SDS011;69574;45.328;9.598;2024-03-07T08:12:39;13.77;;;8.98;;
80272;SDS011;69574;45.328;9.598;2024-03-07T08:15:06;14.52;;;9.00;;
80272;SDS011;69574;45.328;9.598;2024-03-07T08:17:32;13.80;;;9.48;;
80272;SDS011;69574;45.328;9.598;2024-03-07T08:19:59;15.40;;;9.23;;
80272;SDS011;69574;45.328;9.598;2024-03-07T08:22:25;15.00;;;9.40;;
80272;SDS011;69574;45.328;9.598;2024-03-07T08:24:51;16.95;;;10.32;;
80272;SDS011;69574;45.328;9.598;2024-03-07T08:27:17;16.02;;;9.27;;
80272;SDS011;69574;45.328;9.598;2024-03-07T08:29:43;14.23;;;9.90;;
80272;SDS011;69574;45.328;9.598;2024-03-07T08:32:08;18.98;;;10.93;;
80272;SDS011;69574;45.328;9.598;2024-03-07T08:34:34;16.25;;;10.75;;
80272;SDS011;69574;45.328;9.598;2024-03-07T08:37:01;15.57;;;10.00;;
80272;SDS011;69574;45.328;9.598;2024-03-07T08:39:29;15.07;;;10.48;;
80272;SDS011;69574;45.328;9.598;2024-03-07T08:41:54;16.27;;;10.00;;
80272;SDS011;69574;45.328;9.598;2024-03-07T08:44:20;16.08;;;10.35;;
80272;SDS011;69574;45.328;9.598;2024-03-07T08:46:46;14.43;;;9.68;;
80272;SDS011;69574;45.328;9.598;2024-03-07T08:49:11;13.88;;;9.15;;
80272;SDS011;69574;45.328;9.598;2024-03-07T08:51:38;16.08;;;9.88;;
80272;SDS011;69574;45.328;9.598;2024-03-07T08:54:05;15.57;;;9.10;;
80272;SDS011;69574;45.328;9.598;2024-03-07T08:58:55;18.60;;;8.03;;
80272;SDS011;69574;45.328;9.598;2024-03-07T09:01:21;14.38;;;9.00;;
80272;SDS011;69574;45.328;9.598;2024-03-07T09:03:47;12.82;;;9.32;;
80272;SDS011;69574;45.328;9.598;2024-03-07T09:06:12;14.80;;;9.02;;
80272;SDS011;69574;45.328;9.598;2024-03-07T09:08:38;12.48;;;8.88;;
80272;SDS011;69574;45.328;9.598;2024-03-07T09:11:06;16.50;;;10.45;;
80272;SDS011;69574;45.328;9.598;2024-03-07T09:13:31;15.18;;;9.68;;
80272;SDS011;69574;45.328;9.598;2024-03-07T09:15:57;15.57;;;9.65;;
80272;SDS011;69574;45.328;9.598;2024-03-07T09:18:22;13.10;;;9.23;;
80272;SDS011;69574;45.328;9.598;2024-03-07T09:20:49;12.88;;;8.90;;
80272;SDS011;69574;45.328;9.598;2024-03-07T09:23:15;14.60;;;9.75;;
80272;SDS011;69574;45.328;9.598;2024-03-07T09:25:41;15.13;;;10.05;;
80272;SDS011;69574;45.328;9.598;2024-03-07T09:28:09;16.17;;;9.88;;
80272;SDS011;69574;45.328;9.598;2024-03-07T09:30:35;14.45;;;10.18;;
80272;SDS011;69574;45.328;9.598;2024-03-07T09:33:03;13.40;;;9.80;;
80272;SDS011;69574;45.328;9.598;2024-03-07T09:35:29;16.65;;;10.13;;
80272;SDS011;69574;45.328;9.598;2024-03-07T09:37:54;14.38;;;10.68;;
80272;SDS011;69574;45.328;9.598;2024-03-07T09:40:21;12.73;;;9.93;;
80272;SDS011;69574;45.328;9.598;2024-03-07T09:42:50;15.35;;;10.52;;
80272;SDS011;69574;45.328;9.598;2024-03-07T09:45:22;15.35;;;10.05;;
80272;SDS011;69574;45.328;9.598;2024-03-07T09:47:49;15.25;;;10.57;;
80272;SDS011;69574;45.328;9.598;2024-03-07T09:50:16;14.43;;;10.18;;
80272;SDS011;69574;45.328;9.598;2024-03-07T09:52:44;15.13;;;9.90;;
80272;SDS011;69574;45.328;9.598;2024-03-07T09:55:11;15.20;;;10.73;;
80272;SDS011;69574;45.328;9.598;2024-03-07T09:57:38;15.82;;;10.80;;
80272;SDS011;69574;45.328;9.598;2024-03-07T10:00:05;15.05;;;10.77;;
80272;SDS011;69574;45.328;9.598;2024-03-07T10:02:33;16.33;;;10.88;;
80272;SDS011;69574;45.328;9.598;2024-03-07T10:04:59;14.77;;;10.07;;
80272;SDS011;69574;45.328;9.598;2024-03-07T10:07:26;14.65;;;10.85;;
80272;SDS011;69574;45.328;9.598;2024-03-07T10:09:53;12.95;;;9.68;;
80272;SDS011;69574;45.328;9.598;2024-03-07T10:12:21;15.10;;;10.85;;
80272;SDS011;69574;45.328;9.598;2024-03-07T10:14:48;16.58;;;10.38;;
80272;SDS011;69574;45.328;9.598;2024-03-07T10:17:14;16.10;;;10.98;;
80272;SDS011;69574;45.328;9.598;2024-03-07T10:19:42;14.00;;;9.98;;
80272;SDS011;69574;45.328;9.598;2024-03-07T10:22:07;15.10;;;10.68;;
80272;SDS011;69574;45.328;9.598;2024-03-07T10:24:33;15.73;;;10.55;;
80272;SDS011;69574;45.328;9.598;2024-03-07T10:26:59;15.57;;;10.95;;
80272;SDS011;69574;45.328;9.598;2024-03-07T10:29:25;14.52;;;10.35;;
80272;SDS011;69574;45.328;9.598;2024-03-07T10:31:51;15.30;;;10.75;;
80272;SDS011;69574;45.328;9.598;2024-03-07T10:34:17;17.95;;;11.48;;
80272;SDS011;69574;45.328;9.598;2024-03-07T10:36:45;17.38;;;12.18;;
80272;SDS011;69574;45.328;9.598;2024-03-07T10:39:11;15.80;;;12.07;;
80272;SDS011;69574;45.328;9.598;2024-03-07T10:41:42;20.17;;;12.48;;
80272;SDS011;69574;45.328;9.598;2024-03-07T10:44:09;19.27;;;12.27;;
80272;SDS011;69574;45.328;9.598;2024-03-07T10:46:35;17.92;;;12.20;;
80272;SDS011;69574;45.328;9.598;2024-03-07T10:49:02;16.60;;;11.82;;
80272;SDS011;69574;45.328;9.598;2024-03-07T10:51:34;16.55;;;11.82;;
80272;SDS011;69574;45.328;9.598;2024-03-07T10:54:05;15.25;;;10.20;;
80272;SDS011;69574;45.328;9.598;2024-03-07T10:56:39;15.10;;;10.07;;
80272;SDS011;69574;45.328;9.598;2024-03-07T10:59:11;15.20;;;10.57;;
80272;SDS011;69574;45.328;9.598;2024-03-07T11:01:43;17.10;;;10.77;;
80272;SDS011;69574;45.328;9.598;2024-03-07T11:04:10;16.95;;;10.32;;
80272;SDS011;69574;45.328;9.598;2024-03-07T11:06:40;20.52;;;11.77;;
80272;SDS011;69574;45.328;9.598;2024-03-07T11:09:08;18.35;;;11.43;;
80272;SDS011;69574;45.328;9.598;2024-03-07T11:11:36;17.67;;;11.48;;
80272;SDS011;69574;45.328;9.598;2024-03-07T11:16:28;17.25;;;11.68;;
80272;SDS011;69574;45.328;9.598;2024-03-07T11:21:41;17.42;;;10.63;;
80272;SDS011;69574;45.328;9.598;2024-03-07T11:24:08;15.65;;;10.45;;
80272;SDS011;69574;45.328;9.598;2024-03-07T11:26:34;16.40;;;10.63;;
80272;SDS011;69574;45.328;9.598;2024-03-07T11:29:00;14.80;;;9.40;;
80272;SDS011;69574;45.328;9.598;2024-03-07T11:31:26;14.55;;;9.88;;
80272;SDS011;69574;45.328;9.598;2024-03-07T11:34:14;14.02;;;10.27;;
80272;SDS011;69574;45.328;9.598;2024-03-07T11:36:43;17.52;;;10.93;;
80272;SDS011;69574;45.328;9.598;2024-03-07T11:41:51;16.52;;;10.45;;
80272;SDS011;69574;45.328;9.598;2024-03-07T11:44:17;19.38;;;10.57;;
80272;SDS011;69574;45.328;9.598;2024-03-07T11:46:43;17.10;;;10.60;;
80272;SDS011;69574;45.328;9.598;2024-03-07T11:49:09;16.13;;;9.93;;
80272;SDS011;69574;45.328;9.598;2024-03-07T11:51:39;15.35;;;10.15;;
80272;SDS011;69574;45.328;9.598;2024-03-07T11:54:04;14.43;;;9.80;;
80272;SDS011;69574;45.328;9.598;2024-03-07T11:56:30;16.38;;;9.43;;
80272;SDS011;69574;45.328;9.598;2024-03-07T11:58:57;14.70;;;9.82;;
80272;SDS011;69574;45.328;9.598;2024-03-07T12:01:26;14.35;;;10.23;;
80272;SDS011;69574;45.328;9.598;2024-03-07T12:03:52;16.15;;;11.13;;
80272;SDS011;69574;45.328;9.598;2024-03-07T12:06:18;15.07;;;9.82;;
80272;SDS011;69574;45.328;9.598;2024-03-07T12:11:13;18.50;;;10.48;;
80272;SDS011;69574;45.328;9.598;2024-03-07T12:13:41;15.93;;;10.18;;
80272;SDS011;69574;45.328;9.598;2024-03-07T12:16:08;17.25;;;11.35;;
80272;SDS011;69574;45.328;9.598;2024-03-07T12:18:34;16.80;;;10.38;;
80272;SDS011;69574;45.328;9.598;2024-03-07T12:21:01;17.25;;;10.57;;
80272;SDS011;69574;45.328;9.598;2024-03-07T12:23:31;19.30;;;10.57;;
80272;SDS011;69574;45.328;9.598;2024-03-07T12:25:59;19.08;;;11.80;;
80272;SDS011;69574;45.328;9.598;2024-03-07T12:28:25;18.60;;;10.90;;
80272;SDS011;69574;45.328;9.598;2024-03-07T12:30:51;18.55;;;11.07;;
80272;SDS011;69574;45.328;9.598;2024-03-07T12:33:18;21.20;;;11.77;;
80272;SDS011;69574;45.328;9.598;2024-03-07T12:35:44;19.35;;;11.40;;
80272;SDS011;69574;45.328;9.598;2024-03-07T12:38:11;16.88;;;10.32;;
80272;SDS011;69574;45.328;9.598;2024-03-07T12:40:38;17.92;;;10.98;;
80272;SDS011;69574;45.328;9.598;2024-03-07T12:43:12;15.80;;;10.57;;
80272;SDS011;69574;45.328;9.598;2024-03-07T12:45:41;19.52;;;12.15;;
80272;SDS011;69574;45.328;9.598;2024-03-07T12:48:07;17.38;;;11.25;;
80272;SDS011;69574;45.328;9.598;2024-03-07T12:50:35;19.05;;;11.43;;
80272;SDS011;69574;45.328;9.598;2024-03-07T12:53:00;16.98;;;10.57;;
80272;SDS011;69574;45.328;9.598;2024-03-07T12:55:30;19.77;;;11.40;;
80272;SDS011;69574;45.328;9.598;2024-03-07T12:57:56;18.17;;;11.45;;
80272;SDS011;69574;45.328;9.598;2024-03-07T13:00:22;17.45;;;10.63;;
80272;SDS011;69574;45.328;9.598;2024-03-07T13:02:48;19.60;;;10.95;;
80272;SDS011;69574;45.328;9.598;2024-03-07T13:05:14;18.10;;;11.10;;
80272;SDS011;69574;45.328;9.598;2024-03-07T13:07:48;17.60;;;10.77;;
80272;SDS011;69574;45.328;9.598;2024-03-07T13:10:14;17.45;;;11.07;;
80272;SDS011;69574;45.328;9.598;2024-03-07T13:12:45;14.95;;;10.38;;
80272;SDS011;69574;45.328;9.598;2024-03-07T13:15:14;17.48;;;10.05;;
80272;SDS011;69574;45.328;9.598;2024-03-07T13:17:40;18.05;;;10.80;;
80272;SDS011;69574;45.328;9.598;2024-03-07T13:20:09;15.77;;;10.48;;
80272;SDS011;69574;45.328;9.598;2024-03-07T13:22:40;16.05;;;9.15;;
80272;SDS011;69574;45.328;9.598;2024-03-07T13:25:09;15.68;;;10.20;;
80272;SDS011;69574;45.328;9.598;2024-03-07T13:27:39;16.42;;;9.38;;
80272;SDS011;69574;45.328;9.598;2024-03-07T13:30:06;17.75;;;10.18;;
80272;SDS011;69574;45.328;9.598;2024-03-07T13:34:57;13.90;;;9.13;;
80272;SDS011;69574;45.328;9.598;2024-03-07T13:37:26;17.50;;;10.40;;
80272;SDS011;69574;45.328;9.598;2024-03-07T13:39:52;16.77;;;9.93;;
80272;SDS011;69574;45.328;9.598;2024-03-07T13:42:19;15.48;;;10.40;;
80272;SDS011;69574;45.328;9.598;2024-03-07T13:44:45;16.50;;;9.73;;
80272;SDS011;69574;45.328;9.598;2024-03-07T13:47:10;15.20;;;9.15;;
80272;SDS011;69574;45.328;9.598;2024-03-07T13:49:36;14.60;;;9.63;;
80272;SDS011;69574;45.328;9.598;2024-03-07T13:52:03;14.18;;;9.02;;
80272;SDS011;69574;45.328;9.598;2024-03-07T13:54:36;14.57;;;9.50;;
80272;SDS011;69574;45.328;9.598;2024-03-07T13:57:08;14.93;;;9.45;;
80272;SDS011;69574;45.328;9.598;2024-03-07T13:59:48;14.95;;;8.98;;
80272;SDS011;69574;45.328;9.598;2024-03-07T14:07:51;12.48;;;7.60;;
80272;SDS011;69574;45.328;9.598;2024-03-07T14:13:23;10.82;;;7.05;;
80272;SDS011;69574;45.328;9.598;2024-03-07T14:18:59;11.68;;;6.93;;
80272;SDS011;69574;45.328;9.598;2024-03-07T14:21:49;10.52;;;6.30;;
80272;SDS011;69574;45.328;9.598;2024-03-07T14:27:08;12.20;;;6.65;;
80272;SDS011;69574;45.328;9.598;2024-03-07T14:29:38;11.15;;;6.57;;
80272;SDS011;69574;45.328;9.598;2024-03-07T14:32:07;12.60;;;6.55;;
80272;SDS011;69574;45.328;9.598;2024-03-07T14:34:36;12.30;;;6.95;;
80272;SDS011;69574;45.328;9.598;2024-03-07T14:37:09;10.98;;;6.47;;
80272;SDS011;69574;45.328;9.598;2024-03-07T14:39:37;11.50;;;6.50;;
80272;SDS011;69574;45.328;9.598;2024-03-07T14:42:05;12.77;;;6.50;;
80272;SDS011;69574;45.328;9.598;2024-03-07T14:44:35;12.68;;;6.68;;
80272;SDS011;69574;45.328;9.598;2024-03-07T14:47:02;12.02;;;6.80;;
80272;SDS011;69574;45.328;9.598;2024-03-07T14:49:31;11.82;;;6.47;;
80272;SDS011;69574;45.328;9.598;2024-03-07T14:54:24;10.73;;;6.33;;
80272;SDS011;69574;45.328;9.598;2024-03-07T14:56:51;8.27;;;5.32;;
80272;SDS011;69574;45.328;9.598;2024-03-07T14:59:17;9.55;;;5.07;;
80272;SDS011;69574;45.328;9.598;2024-03-07T15:01:43;8.90;;;4.90;;
80272;SDS011;69574;45.328;9.598;2024-03-07T15:04:10;8.02;;;5.05;;
80272;SDS011;69574;45.328;9.598;2024-03-07T15:09:02;9.87;;;5.13;;
80272;SDS011;69574;45.328;9.598;2024-03-07T15:11:31;8.90;;;5.20;;
80272;SDS011;69574;45.328;9.598;2024-03-07T15:13:59;9.40;;;5.20;;
80272;SDS011;69574;45.328;9.598;2024-03-07T15:16:26;11.68;;;6.13;;
80272;SDS011;69574;45.328;9.598;2024-03-07T15:18:53;9.70;;;5.25;;
80272;SDS011;69574;45.328;9.598;2024-03-07T15:21:19;8.77;;;5.43;;